sensor_id;sensor_type;location;lat;lon;timestamp;P1;durP1;ratioP1;P2;durP2;ratioP2
14001;SDS011;7076;51.280;12.584;2023-08-07T00:04:08;2.65;;;1.60;;
14001;SDS011;7076;51.280;12.584;2023-08-07T00:09:12;1.30;;;1.20;;
14001;SDS011;7076;51.280;12.584;2023-08-07T00:14:15;5.40;;;1.80;;
14001;SDS011;7076;51.280;12.584;2023-08-07T00:19:18;2.55;;;1.60;;
14001;SDS011;7076;51.280;12.584;2023-08-07T00:24:22;3.30;;;1.50;;
14001;SDS011;7076;51.280;12.584;2023-08-07T00:29:25;2.60;;;1.40;;
14001;SDS011;7076;51.280;12.584;2023-08-07T00:34:28;4.15;;;1.30;;
14001;SDS011;7076;51.280;12.584;2023-08-07T00:39:32;4.70;;;1.40;;
14001;SDS011;7076;51.280;12.584;2023-08-07T00:44:35;4.07;;;1.38;;
14001;SDS011;7076;51.280;12.584;2023-08-07T00:49:39;2.38;;;1.35;;
14001;SDS011;7076;51.280;12.584;2023-08-07T00:54:43;1.58;;;1.48;;
14001;SDS011;7076;51.280;12.584;2023-08-07T00:59:46;1.65;;;1.45;;
14001;SDS011;7076;51.280;12.584;2023-08-07T01:04:49;1.77;;;1.67;;
14001;SDS011;7076;51.280;12.584;2023-08-07T01:09:54;1.70;;;1.60;;
14001;SDS011;7076;51.280;12.584;2023-08-07T01:15:01;1.42;;;1.33;;
14001;SDS011;7076;51.280;12.584;2023-08-07T01:20:09;1.75;;;1.40;;
14001;SDS011;7076;51.280;12.584;2023-08-07T01:25:15;2.63;;;1.58;;
14001;SDS011;7076;51.280;12.584;2023-08-07T01:30:19;3.67;;;1.73;;
14001;SDS011;7076;51.280;12.584;2023-08-07T01:35:29;1.40;;;1.30;;
14001;SDS011;7076;51.280;12.584;2023-08-07T01:40:34;1.80;;;1.40;;
14001;SDS011;7076;51.280;12.584;2023-08-07T01:45:37;1.40;;;1.15;;
14001;SDS011;7076;51.280;12.584;2023-08-07T01:50:43;1.90;;;1.73;;
14001;SDS011;7076;51.280;12.584;2023-08-07T01:55:47;2.53;;;1.55;;
14001;SDS011;7076;51.280;12.584;2023-08-07T02:00:50;1.77;;;1.67;;
14001;SDS011;7076;51.280;12.584;2023-08-07T02:05:53;2.95;;;1.63;;
14001;SDS011;7076;51.280;12.584;2023-08-07T02:11:00;2.90;;;2.10;;
14001;SDS011;7076;51.280;12.584;2023-08-07T02:16:04;3.78;;;2.00;;
14001;SDS011;7076;51.280;12.584;2023-08-07T02:21:07;1.85;;;1.70;;
14001;SDS011;7076;51.280;12.584;2023-08-07T02:26:11;2.00;;;1.73;;
14001;SDS011;7076;51.280;12.584;2023-08-07T02:31:14;3.30;;;1.65;;
14001;SDS011;7076;51.280;12.584;2023-08-07T02:36:17;2.13;;;1.77;;
14001;SDS011;7076;51.280;12.584;2023-08-07T02:41:22;2.10;;;1.88;;
14001;SDS011;7076;51.280;12.584;2023-08-07T02:46:25;2.72;;;1.65;;
14001;SDS011;7076;51.280;12.584;2023-08-07T02:51:28;3.58;;;2.10;;
14001;SDS011;7076;51.280;12.584;2023-08-07T02:56:32;2.35;;;1.85;;
14001;SDS011;7076;51.280;12.584;2023-08-07T03:01:35;2.28;;;1.95;;
14001;SDS011;7076;51.280;12.584;2023-08-07T03:06:38;2.35;;;2.03;;
14001;SDS011;7076;51.280;12.584;2023-08-07T03:11:42;1.70;;;1.60;;
14001;SDS011;7076;51.280;12.584;2023-08-07T03:16:46;8.30;;;1.80;;
14001;SDS011;7076;51.280;12.584;2023-08-07T03:21:50;2.15;;;2.03;;
14001;SDS011;7076;51.280;12.584;2023-08-07T03:26:54;2.50;;;1.70;;
14001;SDS011;7076;51.280;12.584;2023-08-07T03:31:58;2.53;;;1.70;;
14001;SDS011;7076;51.280;12.584;2023-08-07T03:37:01;2.10;;;1.85;;
14001;SDS011;7076;51.280;12.584;2023-08-07T03:42:05;2.55;;;2.15;;
14001;SDS011;7076;51.280;12.584;2023-08-07T03:47:08;2.55;;;2.10;;
14001;SDS011;7076;51.280;12.584;2023-08-07T03:52:11;2.33;;;1.85;;
14001;SDS011;7076;51.280;12.584;2023-08-07T03:57:16;3.95;;;1.88;;
14001;SDS011;7076;51.280;12.584;2023-08-07T04:02:19;2.08;;;1.88;;
14001;SDS011;7076;51.280;12.584;2023-08-07T04:07:22;2.53;;;2.10;;
14001;SDS011;7076;51.280;12.584;2023-08-07T04:12:26;3.47;;;2.00;;
14001;SDS011;7076;51.280;12.584;2023-08-07T04:17:33;2.05;;;1.60;;
14001;SDS011;7076;51.280;12.584;2023-08-07T04:22:36;2.20;;;1.80;;
14001;SDS011;7076;51.280;12.584;2023-08-07T04:27:40;2.15;;;1.90;;
14001;SDS011;7076;51.280;12.584;2023-08-07T04:32:43;1.88;;;1.52;;
14001;SDS011;7076;51.280;12.584;2023-08-07T04:37:46;2.08;;;1.88;;
14001;SDS011;7076;51.280;12.584;2023-08-07T04:42:50;2.55;;;2.00;;
14001;SDS011;7076;51.280;12.584;2023-08-07T04:47:53;1.60;;;1.50;;
14001;SDS011;7076;51.280;12.584;2023-08-07T04:52:56;4.30;;;1.85;;
14001;SDS011;7076;51.280;12.584;2023-08-07T04:58:00;4.43;;;1.42;;
14001;SDS011;7076;51.280;12.584;2023-08-07T05:03:04;1.20;;;1.10;;
14001;SDS011;7076;51.280;12.584;2023-08-07T05:08:07;1.27;;;1.10;;
14001;SDS011;7076;51.280;12.584;2023-08-07T05:13:11;2.60;;;1.27;;
14001;SDS011;7076;51.280;12.584;2023-08-07T05:18:14;1.67;;;1.27;;
14001;SDS011;7076;51.280;12.584;2023-08-07T05:23:17;1.20;;;1.10;;
14001;SDS011;7076;51.280;12.584;2023-08-07T05:28:21;3.13;;;1.02;;
14001;SDS011;7076;51.280;12.584;2023-08-07T05:33:24;1.73;;;0.73;;
14001;SDS011;7076;51.280;12.584;2023-08-07T05:38:27;1.02;;;0.95;;
14001;SDS011;7076;51.280;12.584;2023-08-07T05:43:31;1.27;;;1.10;;
14001;SDS011;7076;51.280;12.584;2023-08-07T05:48:34;2.88;;;1.00;;
14001;SDS011;7076;51.280;12.584;2023-08-07T05:53:38;2.78;;;0.90;;
14001;SDS011;7076;51.280;12.584;2023-08-07T05:58:43;3.90;;;1.08;;
14001;SDS011;7076;51.280;12.584;2023-08-07T06:03:50;1.40;;;0.93;;
14001;SDS011;7076;51.280;12.584;2023-08-07T06:08:57;0.80;;;0.80;;
14001;SDS011;7076;51.280;12.584;2023-08-07T06:14:07;1.45;;;1.25;;
14001;SDS011;7076;51.280;12.584;2023-08-07T06:19:11;1.38;;;1.10;;
14001;SDS011;7076;51.280;12.584;2023-08-07T06:24:36;1.38;;;0.98;;
14001;SDS011;7076;51.280;12.584;2023-08-07T06:29:48;2.35;;;0.88;;
14001;SDS011;7076;51.280;12.584;2023-08-07T06:34:59;1.10;;;0.85;;
14001;SDS011;7076;51.280;12.584;2023-08-07T06:40:06;1.50;;;1.17;;
14001;SDS011;7076;51.280;12.584;2023-08-07T06:45:21;1.20;;;1.08;;
14001;SDS011;7076;51.280;12.584;2023-08-07T06:50:28;1.92;;;1.10;;
14001;SDS011;7076;51.280;12.584;2023-08-07T06:55:45;1.60;;;0.90;;
14001;SDS011;7076;51.280;12.584;2023-08-07T07:00:54;1.15;;;1.05;;
14001;SDS011;7076;51.280;12.584;2023-08-07T07:06:05;1.75;;;0.73;;
14001;SDS011;7076;51.280;12.584;2023-08-07T07:11:13;1.40;;;0.82;;
14001;SDS011;7076;51.280;12.584;2023-08-07T07:16:26;1.55;;;0.90;;
14001;SDS011;7076;51.280;12.584;2023-08-07T07:21:32;5.85;;;1.05;;
14001;SDS011;7076;51.280;12.584;2023-08-07T07:26:36;1.70;;;0.70;;
14001;SDS011;7076;51.280;12.584;2023-08-07T07:31:40;1.35;;;0.80;;
14001;SDS011;7076;51.280;12.584;2023-08-07T07:36:43;0.93;;;0.70;;
14001;SDS011;7076;51.280;12.584;2023-08-07T07:41:46;0.52;;;0.52;;
14001;SDS011;7076;51.280;12.584;2023-08-07T07:46:51;1.00;;;0.80;;
14001;SDS011;7076;51.280;12.584;2023-08-07T07:51:55;0.73;;;0.73;;
14001;SDS011;7076;51.280;12.584;2023-08-07T07:56:58;2.28;;;0.70;;
14001;SDS011;7076;51.280;12.584;2023-08-07T08:02:02;1.00;;;0.90;;
14001;SDS011;7076;51.280;12.584;2023-08-07T08:07:06;0.90;;;0.70;;
14001;SDS011;7076;51.280;12.584;2023-08-07T08:12:09;2.88;;;0.90;;
14001;SDS011;7076;51.280;12.584;2023-08-07T08:17:14;0.60;;;0.60;;
14001;SDS011;7076;51.280;12.584;2023-08-07T08:22:18;0.65;;;0.65;;
14001;SDS011;7076;51.280;12.584;2023-08-07T08:27:21;0.77;;;0.70;;
14001;SDS011;7076;51.280;12.584;2023-08-07T08:32:25;1.70;;;0.80;;
14001;SDS011;7076;51.280;12.584;2023-08-07T08:37:28;1.65;;;0.65;;
14001;SDS011;7076;51.280;12.584;2023-08-07T08:42:31;0.55;;;0.50;;
14001;SDS011;7076;51.280;12.584;2023-08-07T08:47:40;1.67;;;0.60;;
14001;SDS011;7076;51.280;12.584;2023-08-07T08:52:44;2.53;;;0.70;;
14001;SDS011;7076;51.280;12.584;2023-08-07T08:57:47;5.72;;;0.82;;
14001;SDS011;7076;51.280;12.584;2023-08-07T09:02:52;0.82;;;0.73;;
14001;SDS011;7076;51.280;12.584;2023-08-07T09:07:55;0.60;;;0.60;;
14001;SDS011;7076;51.280;12.584;2023-08-07T09:13:00;1.17;;;0.80;;
14001;SDS011;7076;51.280;12.584;2023-08-07T09:18:07;1.05;;;0.55;;
14001;SDS011;7076;51.280;12.584;2023-08-07T09:23:12;0.60;;;0.60;;
14001;SDS011;7076;51.280;12.584;2023-08-07T09:28:15;1.27;;;0.60;;
14001;SDS011;7076;51.280;12.584;2023-08-07T09:33:25;0.85;;;0.60;;
14001;SDS011;7076;51.280;12.584;2023-08-07T09:38:28;0.52;;;0.50;;
14001;SDS011;7076;51.280;12.584;2023-08-07T09:43:34;0.50;;;0.50;;
14001;SDS011;7076;51.280;12.584;2023-08-07T09:48:43;0.93;;;0.60;;
14001;SDS011;7076;51.280;12.584;2023-08-07T09:53:46;0.50;;;0.47;;
14001;SDS011;7076;51.280;12.584;2023-08-07T09:58:53;0.60;;;0.60;;
14001;SDS011;7076;51.280;12.584;2023-08-07T10:03:58;1.02;;;0.63;;
14001;SDS011;7076;51.280;12.584;2023-08-07T10:09:01;1.30;;;0.68;;
14001;SDS011;7076;51.280;12.584;2023-08-07T10:14:05;0.40;;;0.40;;
14001;SDS011;7076;51.280;12.584;2023-08-07T10:19:09;0.32;;;0.30;;
14001;SDS011;7076;51.280;12.584;2023-08-07T10:24:12;6.85;;;0.50;;
14001;SDS011;7076;51.280;12.584;2023-08-07T10:29:17;1.75;;;0.47;;
14001;SDS011;7076;51.280;12.584;2023-08-07T10:34:23;0.50;;;0.40;;
14001;SDS011;7076;51.280;12.584;2023-08-07T10:39:26;1.15;;;0.40;;
14001;SDS011;7076;51.280;12.584;2023-08-07T10:44:29;0.65;;;0.43;;
14001;SDS011;7076;51.280;12.584;2023-08-07T10:49:36;0.40;;;0.40;;
14001;SDS011;7076;51.280;12.584;2023-08-07T10:54:40;0.40;;;0.40;;
14001;SDS011;7076;51.280;12.584;2023-08-07T10:59:48;0.40;;;0.40;;
14001;SDS011;7076;51.280;12.584;2023-08-07T11:04:53;0.65;;;0.43;;
14001;SDS011;7076;51.280;12.584;2023-08-07T11:09:57;0.57;;;0.55;;
14001;SDS011;7076;51.280;12.584;2023-08-07T11:15:01;0.40;;;0.40;;
14001;SDS011;7076;51.280;12.584;2023-08-07T11:20:07;3.67;;;0.60;;
14001;SDS011;7076;51.280;12.584;2023-08-07T11:25:12;1.73;;;0.63;;
14001;SDS011;7076;51.280;12.584;2023-08-07T11:30:17;0.88;;;0.60;;
14001;SDS011;7076;51.280;12.584;2023-08-07T11:35:21;0.65;;;0.50;;
14001;SDS011;7076;51.280;12.584;2023-08-07T11:40:25;2.15;;;0.55;;
14001;SDS011;7076;51.280;12.584;2023-08-07T11:45:28;0.38;;;0.38;;
14001;SDS011;7076;51.280;12.584;2023-08-07T11:50:33;1.33;;;0.50;;
14001;SDS011;7076;51.280;12.584;2023-08-07T11:55:36;0.68;;;0.50;;
14001;SDS011;7076;51.280;12.584;2023-08-07T12:00:41;0.57;;;0.40;;
14001;SDS011;7076;51.280;12.584;2023-08-07T12:05:47;1.65;;;0.50;;
14001;SDS011;7076;51.280;12.584;2023-08-07T12:10:50;0.52;;;0.40;;
14001;SDS011;7076;51.280;12.584;2023-08-07T12:15:54;0.28;;;0.28;;
14001;SDS011;7076;51.280;12.584;2023-08-07T12:21:00;1.80;;;0.30;;
14001;SDS011;7076;51.280;12.584;2023-08-07T12:26:07;0.30;;;0.30;;
14001;SDS011;7076;51.280;12.584;2023-08-07T12:31:13;0.45;;;0.40;;
14001;SDS011;7076;51.280;12.584;2023-08-07T12:36:28;0.40;;;0.40;;
14001;SDS011;7076;51.280;12.584;2023-08-07T12:41:35;0.82;;;0.40;;
14001;SDS011;7076;51.280;12.584;2023-08-07T12:46:41;1.00;;;0.88;;
14001;SDS011;7076;51.280;12.584;2023-08-07T12:51:45;0.30;;;0.30;;
14001;SDS011;7076;51.280;12.584;2023-08-07T12:56:49;0.30;;;0.30;;
14001;SDS011;7076;51.280;12.584;2023-08-07T13:01:52;0.93;;;0.50;;
14001;SDS011;7076;51.280;12.584;2023-08-07T13:06:56;0.63;;;0.40;;
14001;SDS011;7076;51.280;12.584;2023-08-07T13:12:00;1.40;;;0.50;;
14001;SDS011;7076;51.280;12.584;2023-08-07T13:17:03;1.92;;;0.60;;
14001;SDS011;7076;51.280;12.584;2023-08-07T13:22:08;3.90;;;0.57;;
14001;SDS011;7076;51.280;12.584;2023-08-07T13:27:10;0.70;;;0.30;;
14001;SDS011;7076;51.280;12.584;2023-08-07T13:32:13;0.70;;;0.43;;
14001;SDS011;7076;51.280;12.584;2023-08-07T13:37:21;2.00;;;0.40;;
14001;SDS011;7076;51.280;12.584;2023-08-07T13:42:24;0.70;;;0.35;;
14001;SDS011;7076;51.280;12.584;2023-08-07T13:47:28;1.58;;;0.50;;
14001;SDS011;7076;51.280;12.584;2023-08-07T13:52:35;7.10;;;0.80;;
14001;SDS011;7076;51.280;12.584;2023-08-07T13:57:38;0.43;;;0.40;;
14001;SDS011;7076;51.280;12.584;2023-08-07T14:02:41;1.38;;;0.50;;
14001;SDS011;7076;51.280;12.584;2023-08-07T14:07:45;3.50;;;0.82;;
14001;SDS011;7076;51.280;12.584;2023-08-07T14:12:48;0.82;;;0.60;;
14001;SDS011;7076;51.280;12.584;2023-08-07T14:17:51;0.63;;;0.50;;
14001;SDS011;7076;51.280;12.584;2023-08-07T14:22:56;1.65;;;0.63;;
14001;SDS011;7076;51.280;12.584;2023-08-07T14:28:20;1.00;;;0.60;;
14001;SDS011;7076;51.280;12.584;2023-08-07T14:33:23;0.63;;;0.52;;
14001;SDS011;7076;51.280;12.584;2023-08-07T14:38:27;0.95;;;0.63;;
14001;SDS011;7076;51.280;12.584;2023-08-07T14:43:30;1.77;;;0.80;;
14001;SDS011;7076;51.280;12.584;2023-08-07T14:48:33;2.85;;;0.55;;
14001;SDS011;7076;51.280;12.584;2023-08-07T14:53:38;3.85;;;0.95;;
14001;SDS011;7076;51.280;12.584;2023-08-07T14:58:41;2.50;;;0.63;;
14001;SDS011;7076;51.280;12.584;2023-08-07T15:03:44;1.80;;;0.73;;
14001;SDS011;7076;51.280;12.584;2023-08-07T15:08:48;3.38;;;0.77;;
14001;SDS011;7076;51.280;12.584;2023-08-07T15:13:51;0.93;;;0.70;;
14001;SDS011;7076;51.280;12.584;2023-08-07T15:18:54;0.75;;;0.40;;
14001;SDS011;7076;51.280;12.584;2023-08-07T15:23:58;2.67;;;0.57;;
14001;SDS011;7076;51.280;12.584;2023-08-07T15:29:01;0.93;;;0.50;;
14001;SDS011;7076;51.280;12.584;2023-08-07T15:34:05;2.65;;;0.60;;
14001;SDS011;7076;51.280;12.584;2023-08-07T15:39:10;0.80;;;0.60;;
14001;SDS011;7076;51.280;12.584;2023-08-07T15:44:13;1.52;;;0.50;;
14001;SDS011;7076;51.280;12.584;2023-08-07T15:49:18;0.63;;;0.60;;
14001;SDS011;7076;51.280;12.584;2023-08-07T15:54:23;1.35;;;0.82;;
14001;SDS011;7076;51.280;12.584;2023-08-07T15:59:26;1.77;;;0.65;;
14001;SDS011;7076;51.280;12.584;2023-08-07T16:04:29;1.80;;;0.60;;
14001;SDS011;7076;51.280;12.584;2023-08-07T16:09:33;2.50;;;0.90;;
14001;SDS011;7076;51.280;12.584;2023-08-07T16:14:36;1.90;;;1.35;;
14001;SDS011;7076;51.280;12.584;2023-08-07T16:19:40;1.85;;;0.65;;
14001;SDS011;7076;51.280;12.584;2023-08-07T16:24:44;2.33;;;0.80;;
14001;SDS011;7076;51.280;12.584;2023-08-07T16:29:48;2.05;;;0.73;;
14001;SDS011;7076;51.280;12.584;2023-08-07T16:34:51;1.83;;;0.65;;
14001;SDS011;7076;51.280;12.584;2023-08-07T16:39:56;2.88;;;0.90;;
14001;SDS011;7076;51.280;12.584;2023-08-07T16:44:59;2.47;;;1.20;;
14001;SDS011;7076;51.280;12.584;2023-08-07T16:50:03;4.75;;;1.10;;
14001;SDS011;7076;51.280;12.584;2023-08-07T16:55:08;2.47;;;0.93;;
14001;SDS011;7076;51.280;12.584;2023-08-07T17:00:12;2.45;;;1.10;;
14001;SDS011;7076;51.280;12.584;2023-08-07T17:05:15;2.55;;;1.00;;
14001;SDS011;7076;51.280;12.584;2023-08-07T17:10:19;6.57;;;1.10;;
14001;SDS011;7076;51.280;12.584;2023-08-07T17:15:23;2.40;;;0.85;;
14001;SDS011;7076;51.280;12.584;2023-08-07T17:20:26;2.28;;;1.05;;
14001;SDS011;7076;51.280;12.584;2023-08-07T17:25:31;1.85;;;0.90;;
14001;SDS011;7076;51.280;12.584;2023-08-07T17:30:34;4.00;;;1.40;;
14001;SDS011;7076;51.280;12.584;2023-08-07T17:35:37;2.53;;;1.00;;
14001;SDS011;7076;51.280;12.584;2023-08-07T17:40:41;3.15;;;1.00;;
14001;SDS011;7076;51.280;12.584;2023-08-07T17:45:45;1.75;;;1.23;;
14001;SDS011;7076;51.280;12.584;2023-08-07T17:50:48;3.42;;;0.90;;
14001;SDS011;7076;51.280;12.584;2023-08-07T17:55:54;3.50;;;1.13;;
14001;SDS011;7076;51.280;12.584;2023-08-07T18:00:57;2.63;;;1.30;;
14001;SDS011;7076;51.280;12.584;2023-08-07T18:06:00;7.78;;;1.50;;
14001;SDS011;7076;51.280;12.584;2023-08-07T18:11:05;2.53;;;1.20;;
14001;SDS011;7076;51.280;12.584;2023-08-07T18:16:08;2.70;;;1.17;;
14001;SDS011;7076;51.280;12.584;2023-08-07T18:21:11;5.43;;;1.38;;
14001;SDS011;7076;51.280;12.584;2023-08-07T18:26:16;7.28;;;1.40;;
14001;SDS011;7076;51.280;12.584;2023-08-07T18:31:19;2.13;;;1.30;;
14001;SDS011;7076;51.280;12.584;2023-08-07T18:36:24;3.78;;;1.15;;
14001;SDS011;7076;51.280;12.584;2023-08-07T18:41:29;5.10;;;1.65;;
14001;SDS011;7076;51.280;12.584;2023-08-07T18:46:32;3.45;;;1.00;;
14001;SDS011;7076;51.280;12.584;2023-08-07T18:51:35;4.85;;;1.55;;
14001;SDS011;7076;51.280;12.584;2023-08-07T18:56:40;3.42;;;1.42;;
14001;SDS011;7076;51.280;12.584;2023-08-07T19:01:45;2.42;;;1.00;;
14001;SDS011;7076;51.280;12.584;2023-08-07T19:06:48;5.25;;;1.30;;
14001;SDS011;7076;51.280;12.584;2023-08-07T19:11:53;3.92;;;1.13;;
14001;SDS011;7076;51.280;12.584;2023-08-07T19:16:55;4.88;;;1.27;;
14001;SDS011;7076;51.280;12.584;2023-08-07T19:21:59;3.10;;;1.10;;
14001;SDS011;7076;51.280;12.584;2023-08-07T19:27:03;3.25;;;1.13;;
14001;SDS011;7076;51.280;12.584;2023-08-07T19:32:07;3.10;;;1.00;;
14001;SDS011;7076;51.280;12.584;2023-08-07T19:37:10;3.22;;;1.30;;
14001;SDS011;7076;51.280;12.584;2023-08-07T19:42:14;6.85;;;1.17;;
14001;SDS011;7076;51.280;12.584;2023-08-07T19:47:17;1.50;;;0.95;;
14001;SDS011;7076;51.280;12.584;2023-08-07T19:52:36;2.45;;;1.13;;
14001;SDS011;7076;51.280;12.584;2023-08-07T19:57:44;3.40;;;1.13;;
14001;SDS011;7076;51.280;12.584;2023-08-07T20:02:46;3.65;;;1.30;;
14001;SDS011;7076;51.280;12.584;2023-08-07T20:07:49;3.45;;;1.00;;
14001;SDS011;7076;51.280;12.584;2023-08-07T20:12:54;3.50;;;1.27;;
14001;SDS011;7076;51.280;12.584;2023-08-07T20:17:57;2.38;;;0.70;;
14001;SDS011;7076;51.280;12.584;2023-08-07T20:23:00;3.33;;;1.10;;
14001;SDS011;7076;51.280;12.584;2023-08-07T20:28:05;2.72;;;0.88;;
14001;SDS011;7076;51.280;12.584;2023-08-07T20:33:08;1.38;;;1.00;;
14001;SDS011;7076;51.280;12.584;2023-08-07T20:38:12;2.45;;;1.00;;
14001;SDS011;7076;51.280;12.584;2023-08-07T20:43:16;2.60;;;0.90;;
14001;SDS011;7076;51.280;12.584;2023-08-07T20:48:19;1.95;;;0.88;;
14001;SDS011;7076;51.280;12.584;2023-08-07T20:53:22;2.90;;;1.30;;
14001;SDS011;7076;51.280;12.584;2023-08-07T20:58:26;1.58;;;1.10;;
14001;SDS011;7076;51.280;12.584;2023-08-07T21:03:29;1.10;;;1.00;;
14001;SDS011;7076;51.280;12.584;2023-08-07T21:08:32;2.67;;;1.00;;
14001;SDS011;7076;51.280;12.584;2023-08-07T21:13:36;4.40;;;1.10;;
14001;SDS011;7076;51.280;12.584;2023-08-07T21:18:40;2.13;;;1.20;;
14001;SDS011;7076;51.280;12.584;2023-08-07T21:23:42;2.13;;;1.10;;
14001;SDS011;7076;51.280;12.584;2023-08-07T21:28:47;2.25;;;1.20;;
14001;SDS011;7076;51.280;12.584;2023-08-07T21:33:49;2.78;;;1.15;;
14001;SDS011;7076;51.280;12.584;2023-08-07T21:38:53;4.97;;;1.30;;
14001;SDS011;7076;51.280;12.584;2023-08-07T21:44:00;2.78;;;1.10;;
14001;SDS011;7076;51.280;12.584;2023-08-07T21:49:03;1.98;;;1.23;;
14001;SDS011;7076;51.280;12.584;2023-08-07T21:54:06;2.30;;;1.30;;
14001;SDS011;7076;51.280;12.584;2023-08-07T21:59:13;2.92;;;0.85;;
14001;SDS011;7076;51.280;12.584;2023-08-07T22:04:16;3.25;;;1.08;;
14001;SDS011;7076;51.280;12.584;2023-08-07T22:09:19;3.05;;;1.20;;
14001;SDS011;7076;51.280;12.584;2023-08-07T22:14:23;1.95;;;1.17;;
14001;SDS011;7076;51.280;12.584;2023-08-07T22:19:27;2.90;;;1.10;;
14001;SDS011;7076;51.280;12.584;2023-08-07T22:24:30;2.55;;;1.00;;
14001;SDS011;7076;51.280;12.584;2023-08-07T22:29:34;2.95;;;1.10;;
14001;SDS011;7076;51.280;12.584;2023-08-07T22:34:37;3.20;;;1.20;;
14001;SDS011;7076;51.280;12.584;2023-08-07T22:39:40;2.50;;;1.50;;
14001;SDS011;7076;51.280;12.584;2023-08-07T22:44:45;3.65;;;1.33;;
14001;SDS011;7076;51.280;12.584;2023-08-07T22:49:47;3.35;;;1.20;;
14001;SDS011;7076;51.280;12.584;2023-08-07T22:54:50;4.22;;;1.40;;
14001;SDS011;7076;51.280;12.584;2023-08-07T22:59:54;3.15;;;1.30;;
14001;SDS011;7076;51.280;12.584;2023-08-07T23:04:57;3.30;;;1.30;;
14001;SDS011;7076;51.280;12.584;2023-08-07T23:10:00;3.42;;;1.30;;
14001;SDS011;7076;51.280;12.584;2023-08-07T23:15:05;3.92;;;1.40;;
14001;SDS011;7076;51.280;12.584;2023-08-07T23:20:09;3.08;;;1.40;;
14001;SDS011;7076;51.280;12.584;2023-08-07T23:25:12;3.10;;;1.20;;
14001;SDS011;7076;51.280;12.584;2023-08-07T23:30:17;3.70;;;1.50;;
14001;SDS011;7076;51.280;12.584;2023-08-07T23:35:20;5.13;;;1.50;;
14001;SDS011;7076;51.280;12.584;2023-08-07T23:40:23;1.90;;;1.35;;
14001;SDS011;7076;51.280;12.584;2023-08-07T23:45:27;2.97;;;1.30;;
14001;SDS011;7076;51.280;12.584;2023-08-07T23:50:30;3.17;;;1.60;;
14001;SDS011;7076;51.280;12.584;2023-08-07T23:55:33;2.85;;;1.42;;
